Ink, Ohio
Current Conditions -  °F | °C
As of 8:53 PM on Saturday 22 Nov 2014 (Local Time) from KFDY Reporting Station
Overcast Overcast  
Wind Chill: 50°   Ceiling: 4200
Heat Index: 50°   Visibility: 10mi
Dew Point: 40°   Wind: 15mph
Humidity: 68%   Direction: 200°SSW
Pressure: 29.99"   Gusts: NA
Location:  41.154°N, 83.2212°W
Report Text: KFDY 230153Z AUTO 20013KT 10SM OVC042 10/04 A2999 RMK AO2 RAB18E29 SLP156 P0000 T01000044
Loading
Personal Weather Stations






























Interactive Weather Map New forecast layout! Learn more

10-Day Weather Forecast

Advertisements
Track Severe Weather on mobile